sensor_id;sensor_type;location;lat;lon;timestamp;pressure;altitude;pressure_sealevel;temperature
9985;BMP180;16737;50.932;6.780;2023-02-13T00:01:53;102295.00;;;12.70
9985;BMP180;16737;50.932;6.780;2023-02-13T00:04:20;102302.00;;;12.70
9985;BMP180;16737;50.932;6.780;2023-02-13T00:06:47;102297.00;;;12.70
9985;BMP180;16737;50.932;6.780;2023-02-13T00:09:15;102296.00;;;12.70
9985;BMP180;16737;50.932;6.780;2023-02-13T00:11:42;102284.00;;;12.80
9985;BMP180;16737;50.932;6.780;2023-02-13T00:14:09;102274.00;;;12.80
9985;BMP180;16737;50.932;6.780;2023-02-13T00:16:36;102273.00;;;12.80
9985;BMP180;16737;50.932;6.780;2023-02-13T00:19:03;102268.00;;;12.80
9985;BMP180;16737;50.932;6.780;2023-02-13T00:21:30;102287.00;;;12.80
9985;BMP180;16737;50.932;6.780;2023-02-13T00:23:57;102274.00;;;12.80
9985;BMP180;16737;50.932;6.780;2023-02-13T00:26:27;102245.00;;;12.70
9985;BMP180;16737;50.932;6.780;2023-02-13T00:28:55;102278.00;;;12.70
9985;BMP180;16737;50.932;6.780;2023-02-13T00:31:22;102272.00;;;12.70
9985;BMP180;16737;50.932;6.780;2023-02-13T00:33:49;102281.00;;;12.70
9985;BMP180;16737;50.932;6.780;2023-02-13T00:36:18;102268.00;;;12.70
9985;BMP180;16737;50.932;6.780;2023-02-13T00:38:46;102271.00;;;12.70
9985;BMP180;16737;50.932;6.780;2023-02-13T00:41:14;102251.00;;;12.70
9985;BMP180;16737;50.932;6.780;2023-02-13T00:43:44;102258.00;;;12.70
9985;BMP180;16737;50.932;6.780;2023-02-13T00:46:11;102263.00;;;12.70
9985;BMP180;16737;50.932;6.780;2023-02-13T00:48:38;102260.00;;;12.70
9985;BMP180;16737;50.932;6.780;2023-02-13T00:51:06;102262.00;;;12.70
9985;BMP180;16737;50.932;6.780;2023-02-13T00:53:34;102253.00;;;12.60
9985;BMP180;16737;50.932;6.780;2023-02-13T00:56:02;102247.00;;;12.70
9985;BMP180;16737;50.932;6.780;2023-02-13T00:58:29;102230.00;;;12.70
9985;BMP180;16737;50.932;6.780;2023-02-13T01:00:58;102246.00;;;12.70
9985;BMP180;16737;50.932;6.780;2023-02-13T01:03:26;102252.00;;;12.70
9985;BMP180;16737;50.932;6.780;2023-02-13T01:05:56;102246.00;;;12.70
9985;BMP180;16737;50.932;6.780;2023-02-13T01:08:24;102235.00;;;12.60
9985;BMP180;16737;50.932;6.780;2023-02-13T01:10:53;102234.00;;;12.70
9985;BMP180;16737;50.932;6.780;2023-02-13T01:13:20;102243.00;;;12.70
9985;BMP180;16737;50.932;6.780;2023-02-13T01:15:48;102250.00;;;12.60
9985;BMP180;16737;50.932;6.780;2023-02-13T01:18:19;102230.00;;;12.60
9985;BMP180;16737;50.932;6.780;2023-02-13T01:20:57;102234.00;;;12.60
9985;BMP180;16737;50.932;6.780;2023-02-13T01:23:24;102246.00;;;12.60
9985;BMP180;16737;50.932;6.780;2023-02-13T01:25:51;102243.00;;;12.60
9985;BMP180;16737;50.932;6.780;2023-02-13T01:28:18;102248.00;;;12.60
9985;BMP180;16737;50.932;6.780;2023-02-13T01:30:45;102250.00;;;12.60
9985;BMP180;16737;50.932;6.780;2023-02-13T01:33:19;102248.00;;;12.60
9985;BMP180;16737;50.932;6.780;2023-02-13T01:35:47;102241.00;;;12.60
9985;BMP180;16737;50.932;6.780;2023-02-13T01:38:13;102242.00;;;12.60
9985;BMP180;16737;50.932;6.780;2023-02-13T01:40:45;102226.00;;;12.60
9985;BMP180;16737;50.932;6.780;2023-02-13T01:43:12;102245.00;;;12.60
9985;BMP180;16737;50.932;6.780;2023-02-13T01:45:40;102233.00;;;12.60
9985;BMP180;16737;50.932;6.780;2023-02-13T01:48:15;102237.00;;;12.60
9985;BMP180;16737;50.932;6.780;2023-02-13T01:50:49;102215.00;;;12.60
9985;BMP180;16737;50.932;6.780;2023-02-13T01:53:24;102241.00;;;12.60
9985;BMP180;16737;50.932;6.780;2023-02-13T01:55:57;102234.00;;;12.50
9985;BMP180;16737;50.932;6.780;2023-02-13T01:58:31;102236.00;;;12.50
9985;BMP180;16737;50.932;6.780;2023-02-13T02:01:00;102237.00;;;12.50
9985;BMP180;16737;50.932;6.780;2023-02-13T02:03:33;102240.00;;;12.50
9985;BMP180;16737;50.932;6.780;2023-02-13T02:06:04;102220.00;;;12.50
9985;BMP180;16737;50.932;6.780;2023-02-13T02:08:33;102233.00;;;12.50
9985;BMP180;16737;50.932;6.780;2023-02-13T02:11:08;102251.00;;;12.40
9985;BMP180;16737;50.932;6.780;2023-02-13T02:13:37;102241.00;;;12.50
9985;BMP180;16737;50.932;6.780;2023-02-13T02:16:04;102240.00;;;12.50
9985;BMP180;16737;50.932;6.780;2023-02-13T02:18:31;102253.00;;;12.50
9985;BMP180;16737;50.932;6.780;2023-02-13T02:21:40;102240.00;;;12.40
9985;BMP180;16737;50.932;6.780;2023-02-13T02:24:41;102251.00;;;12.40
9985;BMP180;16737;50.932;6.780;2023-02-13T02:31:04;102236.00;;;12.40
9985;BMP180;16737;50.932;6.780;2023-02-13T02:33:49;102246.00;;;12.30
9985;BMP180;16737;50.932;6.780;2023-02-13T02:36:40;102249.00;;;12.30
9985;BMP180;16737;50.932;6.780;2023-02-13T02:39:22;102250.00;;;12.30
9985;BMP180;16737;50.932;6.780;2023-02-13T02:42:07;102239.00;;;12.30
9985;BMP180;16737;50.932;6.780;2023-02-13T02:44:42;102244.00;;;12.30
9985;BMP180;16737;50.932;6.780;2023-02-13T02:47:22;102235.00;;;12.30
9985;BMP180;16737;50.932;6.780;2023-02-13T02:50:25;102252.00;;;12.30
9985;BMP180;16737;50.932;6.780;2023-02-13T02:53:12;102234.00;;;12.30
9985;BMP180;16737;50.932;6.780;2023-02-13T02:55:49;102243.00;;;12.30
9985;BMP180;16737;50.932;6.780;2023-02-13T02:58:23;102236.00;;;12.30
9985;BMP180;16737;50.932;6.780;2023-02-13T03:01:13;102241.00;;;12.30
9985;BMP180;16737;50.932;6.780;2023-02-13T03:04:00;102233.00;;;12.20
9985;BMP180;16737;50.932;6.780;2023-02-13T03:06:50;102244.00;;;12.20
9985;BMP180;16737;50.932;6.780;2023-02-13T03:09:23;102237.00;;;12.20
9985;BMP180;16737;50.932;6.780;2023-02-13T03:12:12;102231.00;;;12.20
9985;BMP180;16737;50.932;6.780;2023-02-13T03:14:57;102246.00;;;12.20
9985;BMP180;16737;50.932;6.780;2023-02-13T03:17:24;102242.00;;;12.20
9985;BMP180;16737;50.932;6.780;2023-02-13T03:20:21;102240.00;;;12.20
9985;BMP180;16737;50.932;6.780;2023-02-13T03:23:13;102236.00;;;12.20
9985;BMP180;16737;50.932;6.780;2023-02-13T03:26:25;102234.00;;;12.20
9985;BMP180;16737;50.932;6.780;2023-02-13T03:29:08;102230.00;;;12.20
9985;BMP180;16737;50.932;6.780;2023-02-13T03:32:06;102234.00;;;12.10
9985;BMP180;16737;50.932;6.780;2023-02-13T03:34:45;102240.00;;;12.10
9985;BMP180;16737;50.932;6.780;2023-02-13T03:37:38;102237.00;;;12.10
9985;BMP180;16737;50.932;6.780;2023-02-13T03:40:30;102244.00;;;12.10
9985;BMP180;16737;50.932;6.780;2023-02-13T03:43:08;102241.00;;;12.10
9985;BMP180;16737;50.932;6.780;2023-02-13T03:45:39;102249.00;;;12.10
9985;BMP180;16737;50.932;6.780;2023-02-13T03:48:26;102243.00;;;12.10
9985;BMP180;16737;50.932;6.780;2023-02-13T03:51:21;102243.00;;;12.10
9985;BMP180;16737;50.932;6.780;2023-02-13T03:53:55;102236.00;;;12.10
9985;BMP180;16737;50.932;6.780;2023-02-13T03:56:26;102229.00;;;12.10
9985;BMP180;16737;50.932;6.780;2023-02-13T03:59:20;102236.00;;;12.10
9985;BMP180;16737;50.932;6.780;2023-02-13T04:01:58;102235.00;;;12.10
9985;BMP180;16737;50.932;6.780;2023-02-13T04:04:37;102212.00;;;12.10
9985;BMP180;16737;50.932;6.780;2023-02-13T04:07:10;102239.00;;;12.10
9985;BMP180;16737;50.932;6.780;2023-02-13T04:09:55;102223.00;;;12.10
9985;BMP180;16737;50.932;6.780;2023-02-13T04:12:37;102233.00;;;12.00
9985;BMP180;16737;50.932;6.780;2023-02-13T04:15:12;102242.00;;;12.00
9985;BMP180;16737;50.932;6.780;2023-02-13T04:17:47;102232.00;;;12.00
9985;BMP180;16737;50.932;6.780;2023-02-13T04:20:15;102241.00;;;12.00
9985;BMP180;16737;50.932;6.780;2023-02-13T04:22:44;102247.00;;;12.00
9985;BMP180;16737;50.932;6.780;2023-02-13T04:25:14;102253.00;;;11.90
9985;BMP180;16737;50.932;6.780;2023-02-13T04:27:43;102250.00;;;11.90
9985;BMP180;16737;50.932;6.780;2023-02-13T04:30:12;102245.00;;;11.90
9985;BMP180;16737;50.932;6.780;2023-02-13T04:32:39;102251.00;;;11.90
9985;BMP180;16737;50.932;6.780;2023-02-13T04:35:06;102261.00;;;11.90
9985;BMP180;16737;50.932;6.780;2023-02-13T04:37:33;102256.00;;;11.90
9985;BMP180;16737;50.932;6.780;2023-02-13T04:40:00;102258.00;;;11.90
9985;BMP180;16737;50.932;6.780;2023-02-13T04:42:27;102241.00;;;11.70
9985;BMP180;16737;50.932;6.780;2023-02-13T04:44:56;102246.00;;;11.80
9985;BMP180;16737;50.932;6.780;2023-02-13T04:47:22;102249.00;;;11.80
9985;BMP180;16737;50.932;6.780;2023-02-13T04:49:49;102240.00;;;11.80
9985;BMP180;16737;50.932;6.780;2023-02-13T04:52:16;102242.00;;;11.80
9985;BMP180;16737;50.932;6.780;2023-02-13T04:54:43;102236.00;;;11.70
9985;BMP180;16737;50.932;6.780;2023-02-13T04:57:10;102223.00;;;11.70
9985;BMP180;16737;50.932;6.780;2023-02-13T04:59:37;102228.00;;;11.70
9985;BMP180;16737;50.932;6.780;2023-02-13T05:02:05;102226.00;;;11.60
9985;BMP180;16737;50.932;6.780;2023-02-13T05:04:33;102224.00;;;11.60
9985;BMP180;16737;50.932;6.780;2023-02-13T05:06:59;102230.00;;;11.60
9985;BMP180;16737;50.932;6.780;2023-02-13T05:09:26;102223.00;;;11.60
9985;BMP180;16737;50.932;6.780;2023-02-13T05:11:54;102229.00;;;11.50
9985;BMP180;16737;50.932;6.780;2023-02-13T05:14:21;102233.00;;;11.50
9985;BMP180;16737;50.932;6.780;2023-02-13T05:16:48;102231.00;;;11.50
9985;BMP180;16737;50.932;6.780;2023-02-13T05:19:16;102226.00;;;11.40
9985;BMP180;16737;50.932;6.780;2023-02-13T05:21:43;102227.00;;;11.40
9985;BMP180;16737;50.932;6.780;2023-02-13T05:24:30;102245.00;;;11.40
9985;BMP180;16737;50.932;6.780;2023-02-13T05:26:57;102226.00;;;11.30
9985;BMP180;16737;50.932;6.780;2023-02-13T05:29:24;102232.00;;;11.30
9985;BMP180;16737;50.932;6.780;2023-02-13T05:31:54;102232.00;;;11.30
9985;BMP180;16737;50.932;6.780;2023-02-13T05:34:25;102236.00;;;11.20
9985;BMP180;16737;50.932;6.780;2023-02-13T05:36:53;102239.00;;;11.20
9985;BMP180;16737;50.932;6.780;2023-02-13T05:39:21;102240.00;;;11.20
9985;BMP180;16737;50.932;6.780;2023-02-13T05:41:48;102243.00;;;11.20
9985;BMP180;16737;50.932;6.780;2023-02-13T05:44:16;102224.00;;;11.10
9985;BMP180;16737;50.932;6.780;2023-02-13T05:46:44;102229.00;;;11.10
9985;BMP180;16737;50.932;6.780;2023-02-13T05:49:13;102247.00;;;11.10
9985;BMP180;16737;50.932;6.780;2023-02-13T05:51:42;102240.00;;;11.00
9985;BMP180;16737;50.932;6.780;2023-02-13T05:54:11;102236.00;;;11.10
9985;BMP180;16737;50.932;6.780;2023-02-13T05:56:38;102238.00;;;11.10
9985;BMP180;16737;50.932;6.780;2023-02-13T05:59:05;102241.00;;;11.10
9985;BMP180;16737;50.932;6.780;2023-02-13T06:01:32;102244.00;;;11.00
9985;BMP180;16737;50.932;6.780;2023-02-13T06:03:59;102251.00;;;11.00
9985;BMP180;16737;50.932;6.780;2023-02-13T06:06:26;102234.00;;;11.00
9985;BMP180;16737;50.932;6.780;2023-02-13T06:08:55;102223.00;;;10.90
9985;BMP180;16737;50.932;6.780;2023-02-13T06:11:22;102234.00;;;10.90
9985;BMP180;16737;50.932;6.780;2023-02-13T06:13:49;102228.00;;;10.90
9985;BMP180;16737;50.932;6.780;2023-02-13T06:16:16;102242.00;;;10.90
9985;BMP180;16737;50.932;6.780;2023-02-13T06:18:42;102235.00;;;10.90
9985;BMP180;16737;50.932;6.780;2023-02-13T06:21:09;102213.00;;;10.90
9985;BMP180;16737;50.932;6.780;2023-02-13T06:23:36;102236.00;;;10.90
9985;BMP180;16737;50.932;6.780;2023-02-13T06:26:07;102236.00;;;10.80
9985;BMP180;16737;50.932;6.780;2023-02-13T06:28:34;102222.00;;;10.80
9985;BMP180;16737;50.932;6.780;2023-02-13T06:31:01;102220.00;;;10.80
9985;BMP180;16737;50.932;6.780;2023-02-13T06:33:28;102236.00;;;10.80
9985;BMP180;16737;50.932;6.780;2023-02-13T06:35:55;102243.00;;;10.80
9985;BMP180;16737;50.932;6.780;2023-02-13T06:38:22;102240.00;;;10.80
9985;BMP180;16737;50.932;6.780;2023-02-13T06:40:49;102229.00;;;10.70
9985;BMP180;16737;50.932;6.780;2023-02-13T06:43:18;102224.00;;;10.70
9985;BMP180;16737;50.932;6.780;2023-02-13T06:45:45;102230.00;;;10.70
9985;BMP180;16737;50.932;6.780;2023-02-13T06:48:13;102228.00;;;10.60
9985;BMP180;16737;50.932;6.780;2023-02-13T06:50:40;102224.00;;;10.60
9985;BMP180;16737;50.932;6.780;2023-02-13T06:53:07;102221.00;;;10.60
9985;BMP180;16737;50.932;6.780;2023-02-13T06:55:35;102230.00;;;10.60
9985;BMP180;16737;50.932;6.780;2023-02-13T06:58:04;102229.00;;;10.50
9985;BMP180;16737;50.932;6.780;2023-02-13T07:00:32;102234.00;;;10.50
9985;BMP180;16737;50.932;6.780;2023-02-13T07:03:02;102227.00;;;10.50
9985;BMP180;16737;50.932;6.780;2023-02-13T07:05:29;102225.00;;;10.50
9985;BMP180;16737;50.932;6.780;2023-02-13T07:07:56;102224.00;;;10.50
9985;BMP180;16737;50.932;6.780;2023-02-13T07:10:24;102236.00;;;10.50
9985;BMP180;16737;50.932;6.780;2023-02-13T07:12:51;102235.00;;;10.40
9985;BMP180;16737;50.932;6.780;2023-02-13T07:15:18;102209.00;;;10.50
9985;BMP180;16737;50.932;6.780;2023-02-13T07:17:46;102229.00;;;10.50
9985;BMP180;16737;50.932;6.780;2023-02-13T07:20:13;102210.00;;;10.50
9985;BMP180;16737;50.932;6.780;2023-02-13T07:22:40;102240.00;;;10.50
9985;BMP180;16737;50.932;6.780;2023-02-13T07:25:07;102230.00;;;10.50
9985;BMP180;16737;50.932;6.780;2023-02-13T07:27:34;102231.00;;;10.60
9985;BMP180;16737;50.932;6.780;2023-02-13T07:30:01;102228.00;;;10.60
9985;BMP180;16737;50.932;6.780;2023-02-13T07:32:28;102229.00;;;10.60
9985;BMP180;16737;50.932;6.780;2023-02-13T07:34:56;102229.00;;;10.60
9985;BMP180;16737;50.932;6.780;2023-02-13T07:37:23;102223.00;;;10.60
9985;BMP180;16737;50.932;6.780;2023-02-13T07:39:56;102227.00;;;10.60
9985;BMP180;16737;50.932;6.780;2023-02-13T07:42:23;102227.00;;;10.70
9985;BMP180;16737;50.932;6.780;2023-02-13T07:44:50;102235.00;;;10.70
9985;BMP180;16737;50.932;6.780;2023-02-13T07:47:17;102238.00;;;10.70
9985;BMP180;16737;50.932;6.780;2023-02-13T07:49:43;102240.00;;;10.80
9985;BMP180;16737;50.932;6.780;2023-02-13T07:52:12;102239.00;;;10.80
9985;BMP180;16737;50.932;6.780;2023-02-13T07:54:39;102232.00;;;10.80
9985;BMP180;16737;50.932;6.780;2023-02-13T07:57:12;102245.00;;;10.90
9985;BMP180;16737;50.932;6.780;2023-02-13T07:59:39;102232.00;;;10.90
9985;BMP180;16737;50.932;6.780;2023-02-13T08:02:11;102242.00;;;11.00
9985;BMP180;16737;50.932;6.780;2023-02-13T08:04:38;102227.00;;;11.00
9985;BMP180;16737;50.932;6.780;2023-02-13T08:07:05;102226.00;;;11.00
9985;BMP180;16737;50.932;6.780;2023-02-13T08:09:34;102239.00;;;11.10
9985;BMP180;16737;50.932;6.780;2023-02-13T08:12:18;102239.00;;;11.10
9985;BMP180;16737;50.932;6.780;2023-02-13T08:14:45;102243.00;;;11.20
9985;BMP180;16737;50.932;6.780;2023-02-13T08:17:12;102243.00;;;11.20
9985;BMP180;16737;50.932;6.780;2023-02-13T08:19:39;102248.00;;;11.30
9985;BMP180;16737;50.932;6.780;2023-02-13T08:22:08;102241.00;;;11.30
9985;BMP180;16737;50.932;6.780;2023-02-13T08:24:36;102246.00;;;11.40
9985;BMP180;16737;50.932;6.780;2023-02-13T08:27:03;102245.00;;;11.40
9985;BMP180;16737;50.932;6.780;2023-02-13T08:29:30;102250.00;;;11.60
9985;BMP180;16737;50.932;6.780;2023-02-13T08:31:57;102241.00;;;11.60
9985;BMP180;16737;50.932;6.780;2023-02-13T08:34:24;102247.00;;;11.70
9985;BMP180;16737;50.932;6.780;2023-02-13T08:36:51;102257.00;;;11.70
9985;BMP180;16737;50.932;6.780;2023-02-13T08:39:18;102251.00;;;11.70
9985;BMP180;16737;50.932;6.780;2023-02-13T08:41:46;102251.00;;;11.80
9985;BMP180;16737;50.932;6.780;2023-02-13T08:44:13;102255.00;;;11.80
9985;BMP180;16737;50.932;6.780;2023-02-13T08:46:40;102259.00;;;11.90
9985;BMP180;16737;50.932;6.780;2023-02-13T08:49:07;102259.00;;;11.90
9985;BMP180;16737;50.932;6.780;2023-02-13T08:51:34;102265.00;;;12.00
9985;BMP180;16737;50.932;6.780;2023-02-13T08:54:00;102256.00;;;12.00
9985;BMP180;16737;50.932;6.780;2023-02-13T08:56:27;102255.00;;;12.10
9985;BMP180;16737;50.932;6.780;2023-02-13T08:58:56;102251.00;;;12.10
9985;BMP180;16737;50.932;6.780;2023-02-13T09:01:23;102253.00;;;12.10
9985;BMP180;16737;50.932;6.780;2023-02-13T09:03:50;102251.00;;;12.20
9985;BMP180;16737;50.932;6.780;2023-02-13T09:06:17;102254.00;;;12.30
9985;BMP180;16737;50.932;6.780;2023-02-13T09:08:44;102253.00;;;12.30
9985;BMP180;16737;50.932;6.780;2023-02-13T09:11:11;102259.00;;;12.40
9985;BMP180;16737;50.932;6.780;2023-02-13T09:13:38;102258.00;;;12.40
9985;BMP180;16737;50.932;6.780;2023-02-13T09:16:07;102259.00;;;12.40
9985;BMP180;16737;50.932;6.780;2023-02-13T09:18:35;102259.00;;;12.40
9985;BMP180;16737;50.932;6.780;2023-02-13T09:21:05;102247.00;;;12.50
9985;BMP180;16737;50.932;6.780;2023-02-13T09:23:34;102262.00;;;12.50
9985;BMP180;16737;50.932;6.780;2023-02-13T09:26:04;102251.00;;;12.60
9985;BMP180;16737;50.932;6.780;2023-02-13T09:28:33;102264.00;;;12.60
9985;BMP180;16737;50.932;6.780;2023-02-13T09:31:06;102251.00;;;12.70
9985;BMP180;16737;50.932;6.780;2023-02-13T09:33:34;102259.00;;;12.70
9985;BMP180;16737;50.932;6.780;2023-02-13T09:36:04;102249.00;;;12.80
9985;BMP180;16737;50.932;6.780;2023-02-13T09:38:31;102259.00;;;12.80
9985;BMP180;16737;50.932;6.780;2023-02-13T09:41:03;102266.00;;;12.90
9985;BMP180;16737;50.932;6.780;2023-02-13T09:43:35;102268.00;;;12.90
9985;BMP180;16737;50.932;6.780;2023-02-13T09:46:11;102270.00;;;13.00
9985;BMP180;16737;50.932;6.780;2023-02-13T09:48:43;102272.00;;;13.00
9985;BMP180;16737;50.932;6.780;2023-02-13T09:51:15;102263.00;;;13.10
9985;BMP180;16737;50.932;6.780;2023-02-13T09:53:52;102272.00;;;13.10
9985;BMP180;16737;50.932;6.780;2023-02-13T09:56:35;102272.00;;;13.20
9985;BMP180;16737;50.932;6.780;2023-02-13T09:59:30;102278.00;;;13.20
9985;BMP180;16737;50.932;6.780;2023-02-13T10:02:13;102280.00;;;13.30
9985;BMP180;16737;50.932;6.780;2023-02-13T10:04:51;102283.00;;;13.40
9985;BMP180;16737;50.932;6.780;2023-02-13T10:07:34;102261.00;;;13.40
9985;BMP180;16737;50.932;6.780;2023-02-13T10:10:18;102276.00;;;13.50
9985;BMP180;16737;50.932;6.780;2023-02-13T10:13:02;102275.00;;;13.60
9985;BMP180;16737;50.932;6.780;2023-02-13T10:15:40;102281.00;;;13.60
9985;BMP180;16737;50.932;6.780;2023-02-13T10:18:16;102264.00;;;13.70
9985;BMP180;16737;50.932;6.780;2023-02-13T10:20:48;102284.00;;;13.80
9985;BMP180;16737;50.932;6.780;2023-02-13T10:23:24;102288.00;;;13.80
9985;BMP180;16737;50.932;6.780;2023-02-13T10:25:57;102286.00;;;13.90
9985;BMP180;16737;50.932;6.780;2023-02-13T10:28:35;102276.00;;;14.00
9985;BMP180;16737;50.932;6.780;2023-02-13T10:31:07;102283.00;;;14.10
9985;BMP180;16737;50.932;6.780;2023-02-13T10:33:46;102278.00;;;14.20
9985;BMP180;16737;50.932;6.780;2023-02-13T10:36:18;102275.00;;;14.30
9985;BMP180;16737;50.932;6.780;2023-02-13T10:38:56;102279.00;;;14.40
9985;BMP180;16737;50.932;6.780;2023-02-13T10:41:31;102278.00;;;14.50
9985;BMP180;16737;50.932;6.780;2023-02-13T10:44:16;102273.00;;;14.50
9985;BMP180;16737;50.932;6.780;2023-02-13T10:47:01;102270.00;;;14.60
9985;BMP180;16737;50.932;6.780;2023-02-13T10:49:55;102281.00;;;14.60
9985;BMP180;16737;50.932;6.780;2023-02-13T10:52:38;102276.00;;;14.80
9985;BMP180;16737;50.932;6.780;2023-02-13T10:55:27;102269.00;;;14.80
9985;BMP180;16737;50.932;6.780;2023-02-13T10:58:08;102289.00;;;14.90
9985;BMP180;16737;50.932;6.780;2023-02-13T11:00:45;102274.00;;;15.00
9985;BMP180;16737;50.932;6.780;2023-02-13T11:03:20;102271.00;;;15.10
9985;BMP180;16737;50.932;6.780;2023-02-13T11:05:51;102270.00;;;15.20
9985;BMP180;16737;50.932;6.780;2023-02-13T11:08:22;102253.00;;;15.20
9985;BMP180;16737;50.932;6.780;2023-02-13T11:10:50;102255.00;;;15.30
9985;BMP180;16737;50.932;6.780;2023-02-13T11:13:20;102253.00;;;15.40
9985;BMP180;16737;50.932;6.780;2023-02-13T11:16:01;102256.00;;;15.50
9985;BMP180;16737;50.932;6.780;2023-02-13T11:18:32;102251.00;;;15.60
9985;BMP180;16737;50.932;6.780;2023-02-13T11:21:07;102252.00;;;15.70
9985;BMP180;16737;50.932;6.780;2023-02-13T11:23:43;102239.00;;;15.80
9985;BMP180;16737;50.932;6.780;2023-02-13T11:26:14;102247.00;;;15.90
9985;BMP180;16737;50.932;6.780;2023-02-13T11:28:50;102246.00;;;15.90
9985;BMP180;16737;50.932;6.780;2023-02-13T11:31:29;102246.00;;;16.00
9985;BMP180;16737;50.932;6.780;2023-02-13T11:33:59;102245.00;;;16.10
9985;BMP180;16737;50.932;6.780;2023-02-13T11:36:30;102240.00;;;16.10
9985;BMP180;16737;50.932;6.780;2023-02-13T11:39:00;102234.00;;;16.20
9985;BMP180;16737;50.932;6.780;2023-02-13T11:41:29;102231.00;;;16.30
9985;BMP180;16737;50.932;6.780;2023-02-13T11:43:59;102231.00;;;16.30
9985;BMP180;16737;50.932;6.780;2023-02-13T11:46:42;102225.00;;;16.40
9985;BMP180;16737;50.932;6.780;2023-02-13T11:49:19;102213.00;;;16.50
9985;BMP180;16737;50.932;6.780;2023-02-13T11:51:50;102224.00;;;16.60
9985;BMP180;16737;50.932;6.780;2023-02-13T11:54:27;102196.00;;;16.60
9985;BMP180;16737;50.932;6.780;2023-02-13T11:56:58;102219.00;;;16.70
9985;BMP180;16737;50.932;6.780;2023-02-13T11:59:30;102212.00;;;16.70
9985;BMP180;16737;50.932;6.780;2023-02-13T12:02:17;102206.00;;;16.80
9985;BMP180;16737;50.932;6.780;2023-02-13T12:04:46;102199.00;;;16.90
9985;BMP180;16737;50.932;6.780;2023-02-13T12:07:19;102204.00;;;16.90
9985;BMP180;16737;50.932;6.780;2023-02-13T12:09:53;102196.00;;;17.10
9985;BMP180;16737;50.932;6.780;2023-02-13T12:12:29;102207.00;;;17.10
9985;BMP180;16737;50.932;6.780;2023-02-13T12:15:14;102205.00;;;17.20
9985;BMP180;16737;50.932;6.780;2023-02-13T12:17:44;102208.00;;;17.30
9985;BMP180;16737;50.932;6.780;2023-02-13T12:20:14;102198.00;;;17.30
9985;BMP180;16737;50.932;6.780;2023-02-13T12:23:00;102201.00;;;17.30
9985;BMP180;16737;50.932;6.780;2023-02-13T12:25:57;102191.00;;;17.40
9985;BMP180;16737;50.932;6.780;2023-02-13T12:28:45;102192.00;;;17.50
9985;BMP180;16737;50.932;6.780;2023-02-13T12:31:33;102193.00;;;17.60
9985;BMP180;16737;50.932;6.780;2023-02-13T12:34:59;102199.00;;;17.70
9985;BMP180;16737;50.932;6.780;2023-02-13T12:37:49;102186.00;;;17.70
9985;BMP180;16737;50.932;6.780;2023-02-13T12:40:38;102176.00;;;17.80
9985;BMP180;16737;50.932;6.780;2023-02-13T12:43:31;102190.00;;;17.80
9985;BMP180;16737;50.932;6.780;2023-02-13T12:46:06;102182.00;;;17.90
9985;BMP180;16737;50.932;6.780;2023-02-13T12:48:46;102163.00;;;18.00
9985;BMP180;16737;50.932;6.780;2023-02-13T12:51:36;102159.00;;;18.00
9985;BMP180;16737;50.932;6.780;2023-02-13T12:54:41;102174.00;;;18.10
9985;BMP180;16737;50.932;6.780;2023-02-13T12:57:35;102179.00;;;18.20
9985;BMP180;16737;50.932;6.780;2023-02-13T13:00:27;102178.00;;;18.20
9985;BMP180;16737;50.932;6.780;2023-02-13T13:06:17;102164.00;;;18.40
9985;BMP180;16737;50.932;6.780;2023-02-13T13:09:20;102168.00;;;18.50
9985;BMP180;16737;50.932;6.780;2023-02-13T13:12:14;102160.00;;;18.50
9985;BMP180;16737;50.932;6.780;2023-02-13T13:14:52;102153.00;;;18.60
9985;BMP180;16737;50.932;6.780;2023-02-13T13:17:37;102168.00;;;18.70
9985;BMP180;16737;50.932;6.780;2023-02-13T13:20:27;102161.00;;;18.80
9985;BMP180;16737;50.932;6.780;2023-02-13T13:23:02;102147.00;;;18.80
9985;BMP180;16737;50.932;6.780;2023-02-13T13:25:41;102164.00;;;18.90
9985;BMP180;16737;50.932;6.780;2023-02-13T13:28:16;102166.00;;;19.00
9985;BMP180;16737;50.932;6.780;2023-02-13T13:30:46;102157.00;;;19.00
9985;BMP180;16737;50.932;6.780;2023-02-13T13:33:17;102152.00;;;19.00
9985;BMP180;16737;50.932;6.780;2023-02-13T13:36:00;102153.00;;;19.10
9985;BMP180;16737;50.932;6.780;2023-02-13T13:38:45;102154.00;;;19.10
9985;BMP180;16737;50.932;6.780;2023-02-13T13:41:24;102158.00;;;19.10
9985;BMP180;16737;50.932;6.780;2023-02-13T13:44:12;102149.00;;;19.10
9985;BMP180;16737;50.932;6.780;2023-02-13T13:46:55;102132.00;;;19.20
9985;BMP180;16737;50.932;6.780;2023-02-13T13:49:34;102132.00;;;19.20
9985;BMP180;16737;50.932;6.780;2023-02-13T13:52:22;102133.00;;;19.30
9985;BMP180;16737;50.932;6.780;2023-02-13T13:54:50;102122.00;;;19.30
9985;BMP180;16737;50.932;6.780;2023-02-13T13:57:19;102132.00;;;19.30
9985;BMP180;16737;50.932;6.780;2023-02-13T14:00:23;102135.00;;;19.30
9985;BMP180;16737;50.932;6.780;2023-02-13T14:03:22;102128.00;;;19.30
9985;BMP180;16737;50.932;6.780;2023-02-13T14:06:00;102134.00;;;19.30
9985;BMP180;16737;50.932;6.780;2023-02-13T14:08:57;102131.00;;;19.30
9985;BMP180;16737;50.932;6.780;2023-02-13T14:11:29;102122.00;;;19.40
9985;BMP180;16737;50.932;6.780;2023-02-13T14:13:57;102131.00;;;19.40
9985;BMP180;16737;50.932;6.780;2023-02-13T14:16:41;102127.00;;;19.40
9985;BMP180;16737;50.932;6.780;2023-02-13T14:19:25;102119.00;;;19.30
9985;BMP180;16737;50.932;6.780;2023-02-13T14:21:53;102130.00;;;19.30
9985;BMP180;16737;50.932;6.780;2023-02-13T14:24:23;102119.00;;;19.30
9985;BMP180;16737;50.932;6.780;2023-02-13T14:26:54;102104.00;;;19.30
9985;BMP180;16737;50.932;6.780;2023-02-13T14:29:31;102115.00;;;19.30
9985;BMP180;16737;50.932;6.780;2023-02-13T14:32:17;102108.00;;;19.30
9985;BMP180;16737;50.932;6.780;2023-02-13T14:34:54;102114.00;;;19.30
9985;BMP180;16737;50.932;6.780;2023-02-13T14:37:31;102111.00;;;19.30
9985;BMP180;16737;50.932;6.780;2023-02-13T14:40:43;102115.00;;;19.20
9985;BMP180;16737;50.932;6.780;2023-02-13T14:43:33;102111.00;;;19.20
9985;BMP180;16737;50.932;6.780;2023-02-13T14:46:19;102106.00;;;19.20
9985;BMP180;16737;50.932;6.780;2023-02-13T14:48:56;102098.00;;;19.10
9985;BMP180;16737;50.932;6.780;2023-02-13T14:51:32;102101.00;;;19.10
9985;BMP180;16737;50.932;6.780;2023-02-13T14:54:06;102088.00;;;19.10
9985;BMP180;16737;50.932;6.780;2023-02-13T14:56:37;102092.00;;;19.00